Time;durP1;ratioP1;P1;durP2;ratioP2;P2;SDS_P1;SDS_P2;PMS_P1;PMS_P2;Temp;Humidity;BMP_temperature;BMP_pressure;BME280_temperature;BME280_humidity;BME280_pressure;Samples;Min_cycle;Max_cycle;Signal;HPM_P1;HPM_P2
2022/12/22 03:25:55;;;;;;;14.83;13.40;;;;;;;;;;5077083;28;20959;-71
2022/12/22 03:28:24;;;;;;;16.30;13.63;;;9.20;99.90;;;;;;5071003;28;20455;-70
2022/12/22 03:30:56;;;;;;;13.77;12.60;;;9.40;99.90;;;;;;5073738;28;20482;-70
2022/12/22 03:33:25;;;;;;;13.73;12.43;;;9.40;99.90;;;;;;5072263;28;20470;-71
2022/12/22 03:35:51;;;;;;;13.40;12.60;;;9.30;99.90;;;;;;5072647;28;20465;-73
2022/12/22 03:38:18;;;;;;;14.50;13.10;;;9.40;99.90;;;;;;5081719;28;20575;-72
2022/12/22 03:40:45;;;;;;;17.57;12.00;;;9.40;99.90;;;;;;5076248;28;20454;-71
2022/12/22 03:49:10;;;;;;;13.33;12.00;;;9.40;99.90;;;;;;4995535;28;20549;-72
2022/12/22 03:51:40;;;;;;;13.70;12.57;;;9.40;99.90;;;;;;4989651;28;20494;-70
2022/12/22 03:54:07;;;;;;;14.70;13.13;;;9.30;99.90;;;;;;5043689;28;20943;-70
2022/12/22 03:56:34;;;;;;;13.40;12.30;;;9.40;99.90;;;;;;5079374;28;20500;-71
2022/12/22 03:59:01;;;;;;;12.63;11.63;;;9.30;99.90;;;;;;5076196;28;20477;-71
2022/12/22 04:01:28;;;;;;;13.20;12.27;;;9.40;99.90;;;;;;5077512;28;20466;-70
2022/12/22 04:03:54;;;;;;;18.73;12.57;;;9.40;99.90;;;;;;5073322;28;20518;-70
2022/12/22 04:06:23;;;;;;;20.37;12.80;;;9.40;99.90;;;;;;5079808;28;20842;-72
2022/12/22 04:08:50;;;;;;;14.13;12.87;;;;;;;;;;5079880;28;20458;-70
2022/12/22 04:14:03;;;;;;;15.07;12.00;;;9.50;99.90;;;;;;5080482;28;20461;-70
2022/12/22 04:16:30;;;;;;;13.93;12.60;;;9.40;99.90;;;;;;5076915;28;20465;-70
2022/12/22 04:18:58;;;;;;;20.73;12.00;;;9.40;99.90;;;;;;5079759;28;20467;-72
2022/12/22 04:21:28;;;;;;;13.50;12.10;;;9.40;99.90;;;;;;5078292;28;20462;-71
2022/12/22 04:23:54;;;;;;;13.30;12.10;;;9.50;99.90;;;;;;5079598;28;20474;-72
2022/12/22 04:26:23;;;;;;;13.23;12.20;;;9.60;99.90;;;;;;5079561;28;20984;-70
2022/12/22 04:28:50;;;;;;;16.70;12.07;;;9.50;99.90;;;;;;5080785;28;20484;-70
2022/12/22 04:31:17;;;;;;;26.43;13.07;;;9.50;99.90;;;;;;5080584;28;20493;-71
2022/12/22 04:33:45;;;;;;;14.57;13.37;;;;;;;;;;5075882;28;20467;-70
2022/12/22 04:36:13;;;;;;;24.10;14.20;;;9.70;99.90;;;;;;5075158;28;20463;-71
2022/12/22 04:38:42;;;;;;;20.30;13.00;;;9.50;99.90;;;;;;5079994;28;20552;-71
2022/12/22 04:41:09;;;;;;;26.03;13.37;;;9.50;99.90;;;;;;5078848;28;20470;-72
2022/12/22 04:43:36;;;;;;;13.83;12.70;;;9.50;99.90;;;;;;5078170;28;20470;-71
2022/12/22 04:46:04;;;;;;;13.60;12.60;;;9.60;99.90;;;;;;5080454;28;20948;-69
2022/12/22 04:48:31;;;;;;;12.73;11.83;;;9.50;99.90;;;;;;5075221;28;20461;-70
2022/12/22 04:50:59;;;;;;;12.33;11.30;;;9.70;99.90;;;;;;5082238;28;20551;-73
2022/12/22 04:53:28;;;;;;;12.80;11.80;;;9.80;99.90;;;;;;5084074;28;20458;-71
2022/12/22 04:55:58;;;;;;;13.40;12.30;;;9.70;99.90;;;;;;5079474;28;20467;-72
2022/12/22 04:58:25;;;;;;;13.80;12.83;;;9.80;99.90;;;;;;5076089;28;20497;-71
2022/12/22 05:00:52;;;;;;;13.07;12.13;;;;;;;;;;5075208;28;20958;-70
2022/12/22 05:03:19;;;;;;;13.27;12.20;;;9.80;99.90;;;;;;5081516;28;20466;-71
2022/12/22 05:05:46;;;;;;;12.63;11.97;;;9.80;99.90;;;;;;5072010;28;20501;-73
2022/12/22 05:08:13;;;;;;;29.47;12.83;;;9.80;99.90;;;;;;5076834;28;20491;-72
2022/12/22 05:10:40;;;;;;;12.90;11.90;;;9.80;99.90;;;;;;5076085;28;20534;-72
2022/12/22 05:13:10;;;;;;;14.77;13.30;;;9.90;99.90;;;;;;5075603;28;20466;-70
2022/12/22 05:15:37;;;;;;;13.23;12.47;;;10.00;99.90;;;;;;5074440;28;20971;-73
2022/12/22 05:18:04;;;;;;;14.40;13.27;;;10.00;99.90;;;;;;5070742;28;20478;-70
2022/12/22 05:20:32;;;;;;;12.93;12.20;;;10.00;99.90;;;;;;5073580;28;20462;-72
2022/12/22 05:22:59;;;;;;;14.07;13.07;;;10.00;99.90;;;;;;5078010;28;20519;-73
2022/12/22 05:25:26;;;;;;;13.70;12.30;;;10.00;99.90;;;;;;5073605;28;20462;-71
2022/12/22 05:27:53;;;;;;;132.93;17.83;;;10.10;99.90;;;;;;5074921;28;20481;-72
2022/12/22 05:30:21;;;;;;;168.67;23.47;;;;;;;;;;5076311;28;21019;-73
2022/12/22 05:32:49;;;;;;;21.23;14.07;;;;;;;;;;5078329;28;20550;-71
2022/12/22 05:35:16;;;;;;;14.87;13.03;;;10.00;99.90;;;;;;5072626;28;20461;-71
2022/12/22 05:37:43;;;;;;;20.23;12.47;;;9.90;99.90;;;;;;5076100;28;20477;-71
2022/12/22 05:40:12;;;;;;;15.40;13.30;;;9.90;99.90;;;;;;5076671;28;20492;-71
2022/12/22 05:42:39;;;;;;;16.10;13.77;;;10.00;99.90;;;;;;5075505;28;20557;-71
2022/12/22 05:45:12;;;;;;;35.27;14.60;;;9.90;99.90;;;;;;5076575;28;20486;-71
2022/12/22 05:47:40;;;;;;;14.30;13.20;;;;;;;;;;5068884;28;20597;-71
2022/12/22 05:50:09;;;;;;;14.53;13.43;;;9.90;99.90;;;;;;5081099;28;20487;-71
2022/12/22 05:52:37;;;;;;;17.43;14.53;;;9.90;99.90;;;;;;5078860;28;20469;-71
2022/12/22 05:55:04;;;;;;;23.03;15.93;;;9.80;99.90;;;;;;5079343;28;20469;-73
2022/12/22 05:57:31;;;;;;;30.33;16.67;;;9.80;99.90;;;;;;5078098;28;20466;-72
2022/12/22 05:59:58;;;;;;;27.67;16.50;;;9.70;99.90;;;;;;5081239;28;20474;-72
2022/12/22 06:02:25;;;;;;;37.00;16.40;;;9.70;99.90;;;;;;5081701;28;20446;-71
2022/12/22 06:04:54;;;;;;;84.57;18.20;;;;;;;;;;5080525;28;20489;-72
2022/12/22 06:07:20;;;;;;;22.97;14.90;;;9.90;99.90;;;;;;5077205;28;20468;-70
2022/12/22 06:09:48;;;;;;;21.53;14.73;;;;;;;;;;5074223;28;20834;-73
2022/12/22 06:12:14;;;;;;;25.90;16.30;;;9.80;99.90;;;;;;5079077;28;20476;-71
2022/12/22 06:14:41;;;;;;;16.17;14.87;;;9.80;99.90;;;;;;5082458;28;20465;-74
2022/12/22 06:17:08;;;;;;;19.70;17.90;;;;;;;;;;5078306;28;20470;-71
2022/12/22 06:19:36;;;;;;;21.67;19.50;;;;;;;;;;5081799;28;20481;-72
2022/12/22 06:22:04;;;;;;;18.17;16.83;;;9.70;99.90;;;;;;5076564;28;20462;-72
2022/12/22 06:24:31;;;;;;;17.30;15.90;;;;;;;;;;5072578;28;20474;-73
2022/12/22 06:26:58;;;;;;;16.43;15.13;;;9.70;99.90;;;;;;5079753;28;20462;-71
2022/12/22 06:29:25;;;;;;;22.07;18.93;;;9.70;99.90;;;;;;5080604;28;20474;-70
2022/12/22 06:31:52;;;;;;;33.97;29.40;;;;;;;;;;5079151;28;20626;-72
2022/12/22 06:34:20;;;;;;;28.67;24.13;;;9.80;99.90;;;;;;5074693;28;20747;-72
2022/12/22 06:36:47;;;;;;;24.13;21.83;;;9.80;99.90;;;;;;5077197;28;20773;-70
2022/12/22 06:39:16;;;;;;;21.00;17.73;;;9.80;99.90;;;;;;5084682;28;20462;-70
2022/12/22 06:44:28;;;;;;;21.07;18.93;;;9.80;99.90;;;;;;5081354;28;20822;-70
2022/12/22 06:46:55;;;;;;;21.37;19.03;;;9.70;99.90;;;;;;5082671;28;20457;-71
2022/12/22 06:49:22;;;;;;;30.37;19.10;;;;;;;;;;5082493;28;20451;-70
2022/12/22 06:51:49;;;;;;;42.00;27.73;;;9.70;99.90;;;;;;5077559;28;20487;-71
2022/12/22 06:54:18;;;;;;;61.23;38.33;;;;;;;;;;5076315;28;20831;-71
2022/12/22 06:56:45;;;;;;;45.57;35.40;;;9.80;99.90;;;;;;5081244;28;20966;-71
2022/12/22 06:59:13;;;;;;;32.17;25.77;;;9.80;99.90;;;;;;5081646;28;20814;-72
2022/12/22 07:01:41;;;;;;;23.20;21.03;;;9.80;99.90;;;;;;5082055;28;20489;-70
2022/12/22 07:04:08;;;;;;;20.23;18.27;;;9.70;99.90;;;;;;5078191;28;20840;-70
2022/12/22 07:06:36;;;;;;;17.70;16.17;;;9.80;99.90;;;;;;5082101;28;20461;-70
2022/12/22 07:09:04;;;;;;;17.43;15.80;;;9.70;99.90;;;;;;5080545;28;20465;-69
2022/12/22 07:11:32;;;;;;;16.57;14.80;;;9.60;99.90;;;;;;5076032;28;20845;-70
2022/12/22 07:13:59;;;;;;;16.50;15.30;;;9.40;99.90;;;;;;5085786;28;20458;-70
2022/12/22 07:16:26;;;;;;;32.17;17.00;;;9.30;99.90;;;;;;5079267;28;20544;-71
2022/12/22 07:18:53;;;;;;;41.77;18.20;;;9.20;99.90;;;;;;5081237;28;20855;-71
2022/12/22 07:21:20;;;;;;;18.47;16.10;;;9.20;99.90;;;;;;5078035;28;20710;-71
2022/12/22 07:23:47;;;;;;;17.43;15.90;;;;;;;;;;5077703;28;20463;-70
2022/12/22 07:26:14;;;;;;;18.47;17.17;;;9.10;99.90;;;;;;5084806;28;20476;-69
2022/12/22 07:28:43;;;;;;;17.00;15.10;;;9.20;99.90;;;;;;5074100;28;20554;-71
2022/12/22 07:31:12;;;;;;;18.07;16.60;;;9.40;99.90;;;;;;5080582;28;20520;-70
2022/12/22 07:33:39;;;;;;;17.80;16.30;;;9.60;99.90;;;;;;5080774;28;20458;-70
2022/12/22 07:36:08;;;;;;;17.70;16.10;;;9.70;99.90;;;;;;5076423;28;20970;-70
2022/12/22 07:38:37;;;;;;;17.37;15.73;;;9.70;99.90;;;;;;5079252;28;20544;-69
2022/12/22 07:42:43;;;;;;;19.20;17.20;;;9.70;99.90;;;;;;5084867;28;20476;-69
2022/12/22 07:43:54;;;;;;;20.33;17.10;;;9.80;99.90;;;;;;5075220;28;20465;-70
2022/12/22 07:46:21;;;;;;;22.13;19.07;;;9.80;99.90;;;;;;5077295;28;20470;-70
2022/12/22 07:51:34;;;;;;;27.50;20.13;;;9.50;99.90;;;;;;5075998;28;20845;-70
2022/12/22 07:54:00;;;;;;;27.90;20.43;;;10.00;99.90;;;;;;5078456;28;20494;-71
2022/12/22 07:56:27;;;;;;;25.87;17.50;;;10.00;99.90;;;;;;5073714;28;20474;-70
2022/12/22 07:58:55;;;;;;;17.00;15.40;;;10.00;99.90;;;;;;5080546;28;21060;-71
2022/12/22 08:01:24;;;;;;;19.83;15.70;;;10.00;99.90;;;;;;5079106;28;20480;-71
2022/12/22 08:03:51;;;;;;;18.73;16.40;;;;;;;;;;5080691;28;20841;-70
2022/12/22 08:06:18;;;;;;;18.23;16.27;;;10.20;99.90;;;;;;5082924;28;20465;-71
2022/12/22 08:08:45;;;;;;;17.83;15.87;;;10.10;99.90;;;;;;5081519;28;20820;-70
2022/12/22 08:11:12;;;;;;;16.73;14.93;;;10.20;99.90;;;;;;5082022;28;20490;-70
2022/12/22 08:13:40;;;;;;;21.20;17.00;;;10.10;99.90;;;;;;5079998;28;20462;-71
2022/12/22 08:16:11;;;;;;;17.63;14.87;;;10.00;99.90;;;;;;5074280;28;20822;-70
2022/12/22 08:18:38;;;;;;;18.00;14.20;;;9.90;99.90;;;;;;5073567;28;20946;-71
2022/12/22 08:21:06;;;;;;;17.07;13.10;;;10.00;99.90;;;;;;5084736;28;20465;-71
2022/12/22 08:23:34;;;;;;;19.90;17.80;;;10.00;99.90;;;;;;5080531;28;20465;-70
2022/12/22 08:26:05;;;;;;;19.20;16.70;;;10.00;99.90;;;;;;5078986;28;20457;-69
2022/12/22 08:28:34;;;;;;;20.30;16.83;;;;;;;;;;5080324;28;20987;-71
2022/12/22 08:31:02;;;;;;;21.87;18.27;;;;;;;;;;5078095;28;21087;-69
2022/12/22 08:33:31;;;;;;;24.37;17.27;;;;;;;;;;5079424;28;20458;-71
2022/12/22 08:35:58;;;;;;;25.30;18.23;;;10.00;99.90;;;;;;5075941;28;20462;-71
2022/12/22 08:38:25;;;;;;;20.10;17.20;;;10.00;99.90;;;;;;5080697;28;20967;-71
2022/12/22 08:40:52;;;;;;;22.00;18.17;;;9.90;99.90;;;;;;5086945;28;21079;-71
2022/12/22 08:43:20;;;;;;;26.90;17.17;;;10.10;99.90;;;;;;5078936;28;20465;-71
2022/12/22 08:45:48;;;;;;;30.43;19.53;;;10.10;99.90;;;;;;5079513;28;20585;-70
2022/12/22 08:48:16;;;;;;;28.80;19.83;;;10.20;99.90;;;;;;5079695;28;20961;-69
2022/12/22 08:50:44;;;;;;;40.83;19.77;;;10.20;99.90;;;;;;5078289;28;20996;-70
2022/12/22 08:53:11;;;;;;;40.07;21.30;;;10.10;99.90;;;;;;5078053;28;20862;-71
2022/12/22 08:55:38;;;;;;;29.30;19.80;;;9.90;99.90;;;;;;5078018;28;20894;-69
2022/12/22 08:58:05;;;;;;;26.37;16.70;;;10.10;99.90;;;;;;5079517;28;20466;-70
2022/12/22 09:00:33;;;;;;;26.83;17.80;;;10.10;99.90;;;;;;5079223;28;21087;-71
2022/12/22 09:02:59;;;;;;;31.30;19.17;;;10.10;99.90;;;;;;5071539;28;20502;-71
2022/12/22 09:05:27;;;;;;;32.80;18.97;;;10.10;99.90;;;;;;5080316;28;20486;-70
2022/12/22 09:07:56;;;;;;;24.23;15.77;;;10.00;99.90;;;;;;5073778;28;21008;-69
2022/12/22 09:10:23;;;;;;;29.03;16.87;;;10.00;99.90;;;;;;5076166;28;20493;-71
2022/12/22 09:12:50;;;;;;;25.93;17.27;;;9.90;99.90;;;;;;5080289;28;20568;-71
2022/12/22 09:15:18;;;;;;;29.23;18.80;;;10.00;99.90;;;;;;5078568;28;21110;-71
2022/12/22 09:17:44;;;;;;;31.83;19.87;;;9.90;99.90;;;;;;5079619;28;20462;-71
2022/12/22 09:20:12;;;;;;;38.00;20.03;;;10.20;99.90;;;;;;5074113;28;21283;-71
2022/12/22 09:22:40;;;;;;;34.57;19.53;;;10.00;99.90;;;;;;5080553;28;20524;-69
2022/12/22 09:25:09;;;;;;;33.93;19.30;;;10.20;99.90;;;;;;5076017;28;20464;-69
2022/12/22 09:27:36;;;;;;;36.13;21.43;;;10.10;99.90;;;;;;5079948;28;20773;-71
2022/12/22 09:30:04;;;;;;;38.37;20.57;;;10.20;99.90;;;;;;5084667;28;20461;-71
2022/12/22 09:32:30;;;;;;;40.17;21.63;;;10.30;99.90;;;;;;5086115;28;20577;-72
2022/12/22 09:34:57;;;;;;;35.70;20.87;;;10.30;99.90;;;;;;5081212;28;20462;-71
2022/12/22 09:37:24;;;;;;;36.00;21.40;;;10.30;99.90;;;;;;5081778;28;20564;-69
2022/12/22 09:39:51;;;;;;;42.50;22.07;;;10.30;99.90;;;;;;5083457;28;20462;-70
2022/12/22 09:42:22;;;;;;;39.47;22.23;;;10.30;99.90;;;;;;5084528;28;20823;-71
2022/12/22 09:44:51;;;;;;;46.70;22.97;;;10.30;99.90;;;;;;5088546;28;20458;-71
2022/12/22 09:47:24;;;;;;;42.30;22.47;;;10.20;99.90;;;;;;5085938;28;21612;-71
2022/12/22 09:49:55;;;;;;;37.73;21.77;;;10.10;99.90;;;;;;5086276;28;20473;-71
2022/12/22 09:52:28;;;;;;;43.87;22.27;;;10.10;99.90;;;;;;5081974;28;20842;-70
2022/12/22 09:54:56;;;;;;;40.23;22.37;;;10.20;99.90;;;;;;5083989;28;20462;-70
2022/12/22 09:57:29;;;;;;;43.00;21.27;;;10.20;99.90;;;;;;5082768;28;20900;-71
2022/12/22 09:59:57;;;;;;;46.70;21.73;;;10.10;99.90;;;;;;5083839;28;20488;-70
2022/12/22 10:02:33;;;;;;;40.20;22.80;;;10.10;99.90;;;;;;5086366;28;20457;-69
2022/12/22 10:05:15;;;;;;;44.63;21.73;;;10.10;99.90;;;;;;5086847;28;20577;-71
2022/12/22 10:07:43;;;;;;;37.10;20.37;;;10.10;99.90;;;;;;5079880;28;20466;-69
2022/12/22 10:10:23;;;;;;;35.23;21.67;;;10.20;99.90;;;;;;5083058;28;20693;-71
2022/12/22 10:12:52;;;;;;;30.83;20.03;;;10.10;99.90;;;;;;5082509;28;20497;-69
2022/12/22 10:15:19;;;;;;;37.67;21.47;;;10.00;99.90;;;;;;5082773;28;20548;-69
2022/12/22 10:17:46;;;;;;;37.60;21.10;;;10.10;99.90;;;;;;5080793;28;20951;-71
2022/12/22 10:20:26;;;;;;;31.60;19.43;;;10.10;99.90;;;;;;5076484;28;20465;-69
2022/12/22 10:22:57;;;;;;;32.50;18.47;;;10.30;99.90;;;;;;5082225;28;20831;-70
2022/12/22 10:25:31;;;;;;;32.53;18.77;;;10.20;99.90;;;;;;5076073;28;20461;-68
2022/12/22 10:28:02;;;;;;;33.13;20.23;;;10.20;99.90;;;;;;5079973;28;20453;-70
2022/12/22 10:30:32;;;;;;;30.70;19.47;;;10.60;99.90;;;;;;5077362;28;20468;-71
2022/12/22 10:33:04;;;;;;;31.73;19.50;;;10.40;99.90;;;;;;5086632;28;20477;-70
2022/12/22 10:35:45;;;;;;;38.20;21.10;;;10.50;99.90;;;;;;5076957;28;21056;-69
2022/12/22 10:38:19;;;;;;;34.03;19.87;;;10.50;99.90;;;;;;5078641;28;20450;-69
2022/12/22 10:40:48;;;;;;;38.63;21.97;;;10.30;99.90;;;;;;5081866;28;20548;-70
2022/12/22 10:43:22;;;;;;;37.77;22.10;;;10.40;99.90;;;;;;5078902;28;20473;-70
2022/12/22 10:45:50;;;;;;;36.07;22.80;;;10.40;99.90;;;;;;5081878;28;20458;-70
2022/12/22 10:48:17;;;;;;;37.20;22.97;;;10.30;99.90;;;;;;5077516;28;20836;-69
2022/12/22 10:50:47;;;;;;;36.13;23.50;;;10.30;99.90;;;;;;5075052;28;20470;-69
2022/12/22 10:53:14;;;;;;;38.63;22.40;;;10.20;99.90;;;;;;5084120;28;20583;-71
2022/12/22 10:55:42;;;;;;;39.17;23.33;;;10.10;99.90;;;;;;5083183;28;20461;-70
2022/12/22 10:58:16;;;;;;;42.63;23.67;;;10.10;99.90;;;;;;5080706;28;20458;-68
2022/12/22 11:01:00;;;;;;;43.80;24.40;;;10.20;99.90;;;;;;5080873;28;20489;-69
2022/12/22 11:03:30;;;;;;;39.77;22.43;;;10.10;99.90;;;;;;5079484;28;20921;-70
2022/12/22 11:05:58;;;;;;;38.60;24.10;;;10.20;99.90;;;;;;5056289;28;20491;-69
2022/12/22 11:08:25;;;;;;;46.17;25.80;;;10.00;99.90;;;;;;5052091;28;20479;-70
2022/12/22 11:10:57;;;;;;;43.63;26.63;;;10.10;99.90;;;;;;5061839;28;20545;-69
2022/12/22 11:13:48;;;;;;;40.27;23.53;;;10.00;99.90;;;;;;5059497;28;20584;-70
2022/12/22 11:16:21;;;;;;;36.80;19.73;;;10.00;99.90;;;;;;5058969;28;20785;-71
2022/12/22 11:19:03;;;;;;;41.90;22.90;;;10.10;99.90;;;;;;5055153;28;20540;-70
2022/12/22 11:21:37;;;;;;;35.60;23.93;;;10.50;99.90;;;;;;5055574;28;20468;-70
2022/12/22 11:24:22;;;;;;;41.13;24.70;;;10.50;99.90;;;;;;5060535;28;20729;-71
2022/12/22 11:26:57;;;;;;;37.90;25.90;;;10.00;99.90;;;;;;5053161;28;20462;-69
2022/12/22 11:29:40;;;;;;;40.77;26.13;;;10.10;99.90;;;;;;5059469;28;20472;-70
2022/12/22 11:32:26;;;;;;;37.30;25.20;;;10.10;99.90;;;;;;5061203;28;20486;-68
2022/12/22 11:35:01;;;;;;;35.13;23.47;;;10.10;99.90;;;;;;5067670;28;20459;-70
2022/12/22 11:37:37;;;;;;;40.07;24.60;;;10.10;99.90;;;;;;5063331;28;20461;-71
2022/12/22 11:40:14;;;;;;;38.70;21.53;;;10.20;99.90;;;;;;5055966;28;20462;-68
2022/12/22 11:43:02;;;;;;;41.13;22.33;;;10.20;99.90;;;;;;5055676;28;20462;-69
2022/12/22 11:45:47;;;;;;;30.50;19.37;;;11.10;99.90;;;;;;5062737;28;20459;-69
2022/12/22 11:48:37;;;;;;;28.57;19.20;;;11.50;99.90;;;;;;5047074;28;20462;-71
2022/12/22 11:51:11;;;;;;;24.30;20.10;;;11.70;99.90;;;;;;5065034;28;20466;-70
2022/12/22 11:53:57;;;;;;;24.93;19.47;;;11.40;99.90;;;;;;5058785;28;20495;-70
2022/12/22 11:56:27;;;;;;;24.80;18.93;;;11.20;99.90;;;;;;5069276;28;20462;-71
2022/12/22 11:59:12;;;;;;;21.63;18.77;;;11.00;99.90;;;;;;5065343;28;20876;-70
2022/12/22 12:01:54;;;;;;;30.63;20.93;;;11.10;99.90;;;;;;5066188;28;20765;-70
2022/12/22 12:04:35;;;;;;;31.60;19.43;;;11.00;99.90;;;;;;5059452;28;20491;-70
2022/12/22 12:07:25;;;;;;;25.93;19.93;;;10.80;99.90;;;;;;5076046;28;20968;-71
2022/12/22 12:10:03;;;;;;;20.33;17.23;;;10.50;99.90;;;;;;5075134;28;20991;-68
2022/12/22 12:12:39;;;;;;;20.97;18.70;;;10.50;99.90;;;;;;5078929;28;20489;-71
2022/12/22 12:15:23;;;;;;;23.37;18.97;;;10.70;99.90;;;;;;5074133;28;20464;-69
2022/12/22 12:18:12;;;;;;;21.07;18.97;;;10.40;99.90;;;;;;5075679;28;20470;-68
2022/12/22 12:20:53;;;;;;;24.37;18.97;;;10.40;99.90;;;;;;5077454;28;20463;-71
2022/12/22 12:23:37;;;;;;;21.87;19.77;;;10.80;99.90;;;;;;5077765;28;20466;-69
2022/12/22 12:26:15;;;;;;;22.53;19.20;;;11.40;99.90;;;;;;5078741;28;20470;-69
2022/12/22 12:28:53;;;;;;;21.43;19.30;;;11.70;99.90;;;;;;5075560;28;20468;-69
2022/12/22 12:31:24;;;;;;;22.47;20.20;;;12.00;99.90;;;;;;5085984;28;20465;-68
2022/12/22 12:33:54;;;;;;;23.93;21.10;;;12.30;99.90;;;;;;5080882;28;20517;-70
2022/12/22 12:36:27;;;;;;;24.13;21.77;;;12.50;99.90;;;;;;5075691;28;20458;-71
2022/12/22 12:39:01;;;;;;;22.50;20.50;;;12.50;99.90;;;;;;5080239;28;21008;-72
2022/12/22 12:41:33;;;;;;;22.90;20.70;;;12.90;99.90;;;;;;5073282;28;20472;-69
2022/12/22 12:44:02;;;;;;;23.53;21.17;;;13.00;99.90;;;;;;5082875;28;20482;-70
2022/12/22 12:46:54;;;;;;;22.50;20.50;;;13.20;99.90;;;;;;5079079;28;20461;-68
2022/12/22 12:49:53;;;;;;;24.23;21.90;;;13.30;99.90;;;;;;5085280;28;20458;-71
2022/12/22 12:53:12;;;;;;;22.40;20.30;;;13.40;99.90;;;;;;5083181;28;20495;-71
2022/12/22 12:56:07;;;;;;;23.00;21.00;;;13.00;99.90;;;;;;5086992;28;20464;-70
2022/12/22 12:58:52;;;;;;;22.83;20.80;;;12.90;99.90;;;;;;5079309;28;20462;-69
2022/12/22 13:01:57;;;;;;;21.70;19.70;;;12.80;99.90;;;;;;5078013;28;20462;-72
2022/12/22 13:05:12;;;;;;;21.93;19.83;;;12.40;99.90;;;;;;5070765;28;20484;-70
2022/12/22 13:08:04;;;;;;;22.17;20.00;;;11.90;99.90;;;;;;5085376;28;20553;-68
2022/12/22 13:10:32;;;;;;;22.83;20.43;;;12.20;99.90;;;;;;5087260;28;20478;-71
2022/12/22 13:13:01;;;;;;;22.40;20.10;;;12.20;99.90;;;;;;5091987;28;20544;-71
2022/12/22 13:15:31;;;;;;;20.73;18.83;;;12.30;99.90;;;;;;5076759;28;20454;-70
2022/12/22 13:17:58;;;;;;;21.03;19.10;;;12.40;99.90;;;;;;5082094;28;20970;-70
2022/12/22 13:20:27;;;;;;;23.00;20.60;;;;;;;;;;5073663;28;20462;-68
2022/12/22 13:22:56;;;;;;;25.70;20.93;;;;;;;;;;5080337;28;20470;-69
2022/12/22 13:25:24;;;;;;;21.97;19.67;;;;;;;;;;5084500;28;20505;-70
2022/12/22 13:27:51;;;;;;;22.47;20.30;;;;;;;;;;5083043;28;20798;-69
2022/12/22 13:30:21;;;;;;;22.73;20.43;;;;;;;;;;5078313;28;20712;-71
2022/12/22 13:32:49;;;;;;;21.67;19.57;;;;;;;;;;5081694;28;20489;-69
2022/12/22 13:35:18;;;;;;;21.63;19.50;;;;;;;;;;5077504;28;20465;-72
2022/12/22 13:37:47;;;;;;;21.57;19.20;;;;;;;;;;5080326;28;20460;-69
2022/12/22 13:40:15;;;;;;;19.67;17.63;;;;;;;;;;5077899;28;20453;-69
2022/12/22 13:42:44;;;;;;;20.63;18.63;;;;;;;;;;5077747;28;21001;-70
2022/12/22 13:45:30;;;;;;;20.10;18.10;;;;;;;;;;5078007;28;20476;-69
2022/12/22 13:47:59;;;;;;;19.50;17.50;;;;;;;;;;5079211;28;20458;-68
2022/12/22 13:50:28;;;;;;;19.27;17.27;;;;;;;;;;5080548;28;20454;-69
2022/12/22 13:52:57;;;;;;;19.77;17.67;;;;;;;;;;5076749;28;20493;-69
2022/12/22 13:55:26;;;;;;;19.37;17.53;;;;;;;;;;5079662;28;20577;-69
2022/12/22 13:57:54;;;;;;;19.00;17.30;;;;;;;;;;5076857;28;20587;-69
2022/12/22 14:00:22;;;;;;;17.57;16.03;;;;;;;;;;5079707;28;20486;-70
2022/12/22 14:02:51;;;;;;;17.13;15.63;;;;;;;;;;5081459;28;20458;-70
2022/12/22 14:05:19;;;;;;;16.63;15.33;;;;;;;;;;5075827;28;20521;-70
2022/12/22 14:07:59;;;;;;;17.00;15.70;;;;;;;;;;5069086;28;20843;-68
2022/12/22 14:10:27;;;;;;;15.47;14.47;;;;;;;;;;5078286;28;20509;-72
2022/12/22 14:12:54;;;;;;;15.83;14.63;;;;;;;;;;5081380;28;20488;-68
2022/12/22 14:15:21;;;;;;;15.50;14.30;;;;;;;;;;5083093;28;20454;-69
2022/12/22 14:17:48;;;;;;;15.93;14.00;;;;;;;;;;5083166;28;20466;-69
2022/12/22 14:20:19;;;;;;;15.50;14.43;;;;;;;;;;5079847;28;20544;-70
2022/12/22 14:22:47;;;;;;;14.83;13.87;;;;;;;;;;5084322;28;20642;-72
2022/12/22 14:25:19;;;;;;;13.40;12.60;;;;;;;;;;5075341;28;20459;-69
2022/12/22 14:27:47;;;;;;;14.07;13.27;;;;;;;;;;5075476;28;20485;-71
2022/12/22 14:30:17;;;;;;;13.83;12.93;;;;;;;;;;5072476;28;20462;-69
2022/12/22 14:32:45;;;;;;;14.40;13.50;;;;;;;;;;5041593;28;20473;-72
2022/12/22 14:35:29;;;;;;;14.53;13.63;;;;;;;;;;5081043;28;20562;-69
2022/12/22 14:38:09;;;;;;;14.20;13.30;;;;;;;;;;5081260;28;20486;-72
2022/12/22 14:40:38;;;;;;;16.17;15.07;;;;;;;;;;5077292;28;20858;-70
2022/12/22 14:43:06;;;;;;;15.37;13.97;;;;;;;;;;5082240;28;20485;-73
2022/12/22 14:45:34;;;;;;;14.47;13.53;;;;;;;;;;5080608;28;20462;-69
2022/12/22 14:48:01;;;;;;;15.10;14.10;;;;;;;;;;5079452;28;20466;-71
2022/12/22 14:50:30;;;;;;;16.27;15.07;;;;;;;;;;5075059;28;20524;-69
2022/12/22 14:52:58;;;;;;;13.93;13.13;;;;;;;;;;5081317;28;20580;-69
2022/12/22 14:55:28;;;;;;;14.37;13.37;;;;;;;;;;5084688;28;20454;-69
2022/12/22 14:57:56;;;;;;;16.20;14.80;;;;;;;;;;5081147;28;20573;-69
2022/12/22 15:00:31;;;;;;;15.57;14.57;;;;;;;;;;5078166;28;20478;-72
2022/12/22 15:02:59;;;;;;;15.70;14.63;;;;;;;;;;5080480;28;20971;-72
2022/12/22 15:05:28;;;;;;;16.63;15.43;;;;;;;;;;5076119;28;20486;-69
2022/12/22 15:07:57;;;;;;;15.60;14.50;;;;;;;;;;5082669;28;20786;-70
2022/12/22 15:10:26;;;;;;;16.20;15.10;;;;;;;;;;5079960;28;20462;-69
2022/12/22 15:12:55;;;;;;;14.80;13.80;;;;;;;;;;5074192;28;20985;-69
2022/12/22 15:15:22;;;;;;;17.33;15.70;;;;;;;;;;5082853;28;20524;-69
2022/12/22 15:17:51;;;;;;;17.87;16.67;;;;;;;;;;5075159;28;20958;-70
2022/12/22 15:20:20;;;;;;;19.90;18.60;;;;;;;;;;5075506;28;20606;-68
2022/12/22 15:22:47;;;;;;;18.33;16.83;;;;;;;;;;5083425;28;20475;-68
2022/12/22 15:25:17;;;;;;;21.83;20.33;;;10.20;99.90;;;;;;5079074;28;20461;-68
2022/12/22 15:27:45;;;;;;;21.40;20.00;;;;;;;;;;5075625;28;20502;-70
2022/12/22 15:30:13;;;;;;;21.30;19.90;;;;;;;;;;5075247;28;20459;-68
2022/12/22 15:32:41;;;;;;;21.00;19.60;;;;;;;;;;5085667;28;20474;-70
2022/12/22 15:35:15;;;;;;;20.53;18.93;;;;;;;;;;5082487;28;20992;-71
2022/12/22 15:37:42;;;;;;;21.37;19.97;;;;;;;;;;5086000;28;20968;-68
2022/12/22 15:40:13;;;;;;;20.50;19.30;;;;;;;;;;5090516;28;20471;-68
2022/12/22 15:42:41;;;;;;;21.33;20.03;;;;;;;;;;5077712;28;20476;-71
2022/12/22 15:45:09;;;;;;;19.10;17.83;;;;;;;;;;5079171;28;20450;-69
2022/12/22 15:47:37;;;;;;;19.53;18.43;;;;;;;;;;5078988;28;20474;-70
2022/12/22 15:50:05;;;;;;;19.10;18.10;;;9.70;99.90;;;;;;5079225;28;20466;-70
2022/12/22 15:52:32;;;;;;;19.70;18.57;;;9.80;99.90;;;;;;5084275;28;20804;-70
2022/12/22 15:54:59;;;;;;;18.80;17.80;;;9.90;99.90;;;;;;5080470;28;20465;-69
2022/12/22 15:57:27;;;;;;;18.30;17.30;;;9.70;99.90;;;;;;5080388;28;20458;-69
2022/12/22 15:59:55;;;;;;;18.70;17.70;;;9.80;99.90;;;;;;5079567;28;21207;-69
2022/12/22 16:02:22;;;;;;;19.53;18.40;;;;;;;;;;5087406;28;20932;-69
2022/12/22 16:04:49;;;;;;;20.13;18.97;;;;;;;;;;5074376;28;20490;-71
2022/12/22 16:07:16;;;;;;;19.83;17.00;;;9.80;99.90;;;;;;5081492;28;20470;-68
2022/12/22 16:09:47;;;;;;;15.50;14.70;;;9.80;99.90;;;;;;5078909;28;20865;-70
2022/12/22 16:12:16;;;;;;;15.60;14.70;;;10.30;99.90;;;;;;5073634;28;20549;-70
2022/12/22 16:14:46;;;;;;;16.17;15.23;;;9.80;99.90;;;;;;5079971;28;20494;-71
2022/12/22 16:17:17;;;;;;;17.17;16.07;;;9.80;99.90;;;;;;5081116;28;20457;-70
2022/12/22 16:19:45;;;;;;;18.97;17.67;;;9.70;99.90;;;;;;5073210;28;20494;-71
2022/12/22 16:22:13;;;;;;;18.60;17.33;;;9.50;99.90;;;;;;5083397;28;20556;-70
2022/12/22 16:24:44;;;;;;;19.37;18.07;;;9.70;99.90;;;;;;5079122;28;20466;-69
2022/12/22 16:27:12;;;;;;;23.50;21.27;;;;;;;;;;5078752;28;20824;-70
2022/12/22 16:29:39;;;;;;;20.50;19.10;;;;;;;;;;5073465;28;20455;-69
2022/12/22 16:32:18;;;;;;;21.30;19.90;;;;;;;;;;5068962;28;20505;-71
2022/12/22 16:34:45;;;;;;;17.17;15.70;;;;;;;;;;5074761;28;20496;-68
2022/12/22 16:37:12;;;;;;;17.33;16.13;;;;;;;;;;5074496;28;20466;-69
2022/12/22 16:39:39;;;;;;;18.90;17.73;;;9.80;99.90;;;;;;5080670;28;20544;-71
2022/12/22 16:42:10;;;;;;;19.70;17.67;;;10.00;99.90;;;;;;5078401;28;20856;-69
2022/12/22 16:44:37;;;;;;;18.07;16.23;;;;;;;;;;5077647;28;20469;-68
2022/12/22 16:47:06;;;;;;;31.70;21.67;;;;;;;;;;5081124;28;20470;-69
2022/12/22 16:49:34;;;;;;;18.53;16.93;;;;;;;;;;5083598;28;21012;-69
2022/12/22 16:52:02;;;;;;;21.60;19.73;;;;;;;;;;5077624;28;20466;-69
2022/12/22 16:54:29;;;;;;;24.03;21.77;;;;;;;;;;5069584;28;20489;-70
2022/12/22 16:56:57;;;;;;;15.13;13.90;;;;;;;;;;5076809;28;20477;-69